createdAt,value
2023-07-30T00:01:50.462Z,18.87
2023-07-30T00:04:18.640Z,18.82
2023-07-30T00:06:46.825Z,18.80
2023-07-30T00:09:14.921Z,18.76
2023-07-30T00:11:43.152Z,18.83
2023-07-30T00:14:11.227Z,18.80
2023-07-30T00:16:39.912Z,18.80
2023-07-30T00:19:07.977Z,18.78
2023-07-30T00:21:36.590Z,18.79
2023-07-30T00:24:05.093Z,18.79
2023-07-30T00:26:33.131Z,18.78
2023-07-30T00:29:01.285Z,18.80
2023-07-30T00:31:29.361Z,18.80
2023-07-30T00:33:57.467Z,18.80
2023-07-30T00:36:25.525Z,18.81
2023-07-30T00:38:53.595Z,18.78
2023-07-30T00:41:21.704Z,18.75
2023-07-30T00:43:49.738Z,18.74
2023-07-30T00:46:17.863Z,18.73
2023-07-30T00:48:45.914Z,18.69
2023-07-30T00:51:13.952Z,18.68
2023-07-30T00:53:42.020Z,18.65
2023-07-30T00:56:10.007Z,18.62
2023-07-30T00:58:38.088Z,18.58
2023-07-30T01:01:06.344Z,18.61
2023-07-30T01:03:35.111Z,18.63
2023-07-30T01:06:03.196Z,18.69
2023-07-30T01:08:31.227Z,18.69
2023-07-30T01:10:59.794Z,18.71
2023-07-30T01:13:28.263Z,18.72
2023-07-30T01:15:56.279Z,18.72
2023-07-30T01:18:24.423Z,18.78
2023-07-30T01:20:55.777Z,18.82
2023-07-30T01:23:23.834Z,18.80
2023-07-30T01:25:51.941Z,18.79
2023-07-30T01:28:19.968Z,18.76
2023-07-30T01:30:48.071Z,18.73
2023-07-30T01:33:16.104Z,18.71
2023-07-30T01:35:44.651Z,18.72
2023-07-30T01:38:12.946Z,18.72
2023-07-30T01:40:41.142Z,18.74
2023-07-30T01:43:09.732Z,18.73
2023-07-30T01:45:37.853Z,18.73
2023-07-30T01:48:05.987Z,18.73
2023-07-30T01:50:34.171Z,18.69
2023-07-30T01:53:02.242Z,18.69
2023-07-30T01:55:30.340Z,18.67
2023-07-30T01:57:58.344Z,18.65
2023-07-30T02:00:26.358Z,18.64
2023-07-30T02:02:54.548Z,18.58
2023-07-30T02:05:22.674Z,18.56
2023-07-30T02:07:50.799Z,18.54
2023-07-30T02:10:18.941Z,18.54
2023-07-30T02:12:47.065Z,18.52
2023-07-30T02:15:15.118Z,18.51
2023-07-30T02:17:43.180Z,18.50
2023-07-30T02:20:11.636Z,18.53
2023-07-30T02:22:39.689Z,18.59
2023-07-30T02:25:08.360Z,18.63
2023-07-30T02:27:36.493Z,18.70
2023-07-30T02:30:05.401Z,18.74
2023-07-30T02:32:33.402Z,18.76
2023-07-30T02:35:01.657Z,18.75
2023-07-30T02:37:29.669Z,18.81
2023-07-30T02:39:57.744Z,18.83
2023-07-30T02:42:25.892Z,18.80
2023-07-30T02:44:53.951Z,18.77
2023-07-30T02:47:22.110Z,18.74
2023-07-30T02:49:50.359Z,18.72
2023-07-30T02:52:18.490Z,18.73
2023-07-30T02:54:46.543Z,18.71
2023-07-30T02:57:15.505Z,18.71
2023-07-30T02:59:43.566Z,18.69
2023-07-30T03:02:11.726Z,18.71
2023-07-30T03:04:39.839Z,18.68
2023-07-30T03:07:08.171Z,18.70
2023-07-30T03:09:36.340Z,18.70
2023-07-30T03:12:04.555Z,18.70
2023-07-30T03:14:32.758Z,18.68
2023-07-30T03:17:00.820Z,18.69
2023-07-30T03:19:28.973Z,18.72
2023-07-30T03:21:57.053Z,18.73
2023-07-30T03:24:25.117Z,18.68
2023-07-30T03:26:53.136Z,18.71
2023-07-30T03:29:21.354Z,18.70
2023-07-30T03:31:49.437Z,18.70
2023-07-30T03:34:17.431Z,18.72
2023-07-30T03:36:45.479Z,18.73
2023-07-30T03:39:13.479Z,18.70
2023-07-30T03:41:41.571Z,18.69
2023-07-30T03:44:09.734Z,18.73
2023-07-30T03:46:37.925Z,18.72
2023-07-30T03:49:05.985Z,18.71
2023-07-30T03:51:34.735Z,18.71
2023-07-30T03:54:02.968Z,18.69
2023-07-30T03:56:31.187Z,18.71
2023-07-30T03:58:59.379Z,18.70
2023-07-30T04:01:27.447Z,18.73
2023-07-30T04:03:55.563Z,18.74
2023-07-30T04:06:23.595Z,18.72
2023-07-30T04:08:51.664Z,18.73
2023-07-30T04:11:19.882Z,18.68
2023-07-30T04:13:47.954Z,18.68
2023-07-30T04:16:16.003Z,18.65
2023-07-30T04:18:44.147Z,18.63
2023-07-30T04:21:12.982Z,18.66
2023-07-30T04:23:41.094Z,18.69
2023-07-30T04:26:09.313Z,18.72
2023-07-30T04:28:37.438Z,18.74
2023-07-30T04:31:05.586Z,18.75
2023-07-30T04:33:34.060Z,18.75
2023-07-30T04:36:02.301Z,18.79
2023-07-30T04:38:31.538Z,18.81
2023-07-30T04:41:02.592Z,18.85
2023-07-30T04:43:31.257Z,18.81
2023-07-30T04:45:59.412Z,18.83
2023-07-30T04:48:27.614Z,18.88
2023-07-30T04:50:55.653Z,18.87
2023-07-30T04:53:23.732Z,18.89
2023-07-30T04:55:59.714Z,18.87
2023-07-30T04:58:27.803Z,18.92
2023-07-30T05:00:55.924Z,18.89
2023-07-30T05:03:24.260Z,18.91
2023-07-30T05:05:52.327Z,18.94
2023-07-30T05:08:20.417Z,18.97
2023-07-30T05:10:48.509Z,18.99
2023-07-30T05:13:16.698Z,18.99
2023-07-30T05:15:45.545Z,19.00
2023-07-30T05:18:13.730Z,19.05
2023-07-30T05:20:41.752Z,19.06
2023-07-30T05:23:09.937Z,19.06
2023-07-30T05:25:38.161Z,19.12
2023-07-30T05:28:06.224Z,19.16
2023-07-30T05:30:34.324Z,19.17
2023-07-30T05:33:02.403Z,19.22
2023-07-30T05:35:32.975Z,19.25
2023-07-30T05:38:02.060Z,19.29
2023-07-30T05:40:30.176Z,19.31
2023-07-30T05:42:58.219Z,19.31
2023-07-30T05:45:26.283Z,19.32
2023-07-30T05:47:54.471Z,19.36
2023-07-30T05:50:22.519Z,19.39
2023-07-30T05:52:50.565Z,19.41
2023-07-30T05:55:18.676Z,19.46
2023-07-30T05:57:46.761Z,19.47
2023-07-30T06:00:14.929Z,19.48
2023-07-30T06:02:43.123Z,19.52
2023-07-30T06:05:11.250Z,19.56
2023-07-30T06:07:39.505Z,19.63
2023-07-30T06:10:08.190Z,19.65
2023-07-30T06:12:36.283Z,19.69
2023-07-30T06:15:04.430Z,19.72
2023-07-30T06:17:34.221Z,19.74
2023-07-30T06:20:02.999Z,19.80
2023-07-30T06:22:30.971Z,19.82
2023-07-30T06:24:58.943Z,19.73
2023-07-30T06:27:26.899Z,19.80
2023-07-30T06:29:55.024Z,19.89
2023-07-30T06:32:23.068Z,19.95
2023-07-30T06:34:51.251Z,20.04
2023-07-30T06:37:19.381Z,20.12
2023-07-30T06:39:47.391Z,20.16
2023-07-30T06:42:15.468Z,20.18
2023-07-30T06:44:43.482Z,20.21
2023-07-30T06:47:11.688Z,20.26
2023-07-30T06:49:39.737Z,20.34
2023-07-30T06:52:08.080Z,20.43
2023-07-30T06:54:38.199Z,20.51
2023-07-30T06:57:11.442Z,20.57
2023-07-30T06:59:39.471Z,20.59
2023-07-30T07:02:08.087Z,20.68
2023-07-30T07:04:36.101Z,20.73
2023-07-30T07:07:06.209Z,20.82
2023-07-30T07:09:34.439Z,20.87
2023-07-30T07:12:02.632Z,20.98
2023-07-30T07:14:30.797Z,21.04
2023-07-30T07:16:58.905Z,21.10
2023-07-30T07:19:27.065Z,21.05
2023-07-30T07:21:55.119Z,21.12
2023-07-30T07:24:23.095Z,21.21
2023-07-30T07:26:51.305Z,21.33
2023-07-30T07:29:19.500Z,21.41
2023-07-30T07:31:48.080Z,21.50
2023-07-30T07:34:16.465Z,21.60
2023-07-30T07:36:44.518Z,21.68
2023-07-30T07:39:12.612Z,21.76
2023-07-30T07:41:40.863Z,21.71
2023-07-30T07:44:08.978Z,21.74
2023-07-30T07:46:37.061Z,21.90
2023-07-30T07:49:05.145Z,22.07
2023-07-30T07:51:33.325Z,22.07
2023-07-30T07:54:01.671Z,22.00
2023-07-30T07:56:29.718Z,21.96
2023-07-30T07:58:57.782Z,21.90
2023-07-30T08:01:25.968Z,22.02
2023-07-30T08:03:54.411Z,22.15
2023-07-30T08:06:22.604Z,22.20
2023-07-30T08:08:50.717Z,22.26
2023-07-30T08:11:18.860Z,22.25
2023-07-30T08:13:48.373Z,22.19
2023-07-30T08:16:16.489Z,22.30
2023-07-30T08:18:44.690Z,22.40
2023-07-30T08:21:12.872Z,22.39
2023-07-30T08:23:40.982Z,22.38
2023-07-30T08:26:09.033Z,22.42
2023-07-30T08:28:37.141Z,22.36
2023-07-30T08:31:05.662Z,22.25
2023-07-30T08:33:34.258Z,22.21
2023-07-30T08:36:03.028Z,22.22
2023-07-30T08:38:31.647Z,22.28
2023-07-30T08:40:59.725Z,22.28
2023-07-30T08:43:27.944Z,22.24
2023-07-30T08:45:55.994Z,22.25
2023-07-30T08:48:24.172Z,22.27
2023-07-30T08:50:52.239Z,22.34
2023-07-30T08:53:20.365Z,22.37
2023-07-30T08:55:48.434Z,22.36
2023-07-30T08:58:16.808Z,22.50
2023-07-30T09:00:44.946Z,22.82
2023-07-30T09:03:13.391Z,22.97
2023-07-30T09:05:41.762Z,23.16
2023-07-30T09:08:09.873Z,23.22
2023-07-30T09:10:38.082Z,23.46
2023-07-30T09:13:06.145Z,23.53
2023-07-30T09:15:40.923Z,23.52
2023-07-30T09:18:10.232Z,23.68
2023-07-30T09:20:45.195Z,23.56
2023-07-30T09:23:13.700Z,23.42
2023-07-30T09:25:41.795Z,23.51
2023-07-30T09:28:10.847Z,23.58
2023-07-30T09:30:38.869Z,23.56
2023-07-30T09:33:06.899Z,23.53
2023-07-30T09:35:35.448Z,23.37
2023-07-30T09:38:05.782Z,23.21
2023-07-30T09:40:38.385Z,23.10
2023-07-30T09:43:06.613Z,23.03
2023-07-30T09:45:38.628Z,23.10
2023-07-30T09:48:07.703Z,22.99
2023-07-30T09:50:36.461Z,22.98
2023-07-30T09:53:05.045Z,22.91
2023-07-30T09:55:33.138Z,22.80
2023-07-30T09:58:01.110Z,22.66
2023-07-30T10:00:30.078Z,22.63
2023-07-30T10:02:58.157Z,22.66
2023-07-30T10:05:27.482Z,22.73
2023-07-30T10:08:01.248Z,22.77
2023-07-30T10:10:29.579Z,22.84
2023-07-30T10:12:58.323Z,22.87
2023-07-30T10:15:26.444Z,23.11
2023-07-30T10:17:54.571Z,23.32
2023-07-30T10:20:23.985Z,23.39
2023-07-30T10:22:58.884Z,23.39
2023-07-30T10:25:50.647Z,23.66
2023-07-30T10:28:47.970Z,23.94
2023-07-30T10:31:16.042Z,23.68
2023-07-30T10:33:55.595Z,23.76
2023-07-30T10:36:47.594Z,24.20
2023-07-30T10:39:16.534Z,24.56
2023-07-30T10:41:48.514Z,24.93
2023-07-30T10:44:21.306Z,25.13
2023-07-30T10:46:49.464Z,25.21
2023-07-30T10:49:17.818Z,25.39
2023-07-30T10:51:45.873Z,25.52
2023-07-30T10:54:13.878Z,25.50
2023-07-30T10:56:42.936Z,25.71
2023-07-30T10:59:11.156Z,25.92
2023-07-30T11:01:41.482Z,26.16
2023-07-30T11:04:20.741Z,26.42
2023-07-30T11:06:50.202Z,26.51
2023-07-30T11:09:25.450Z,26.69
2023-07-30T11:11:55.206Z,26.46
2023-07-30T11:14:24.752Z,26.13
2023-07-30T11:16:57.965Z,26.10
2023-07-30T11:19:26.209Z,26.01
2023-07-30T11:21:55.092Z,26.08
2023-07-30T11:24:23.580Z,26.32
2023-07-30T11:27:01.332Z,26.57
2023-07-30T11:29:29.817Z,26.80
2023-07-30T11:32:01.703Z,27.05
2023-07-30T11:34:29.934Z,27.17
2023-07-30T11:36:58.238Z,27.41
2023-07-30T11:39:26.591Z,27.63
2023-07-30T11:41:54.810Z,27.76
2023-07-30T11:44:37.487Z,27.90
2023-07-30T11:47:06.872Z,27.99
2023-07-30T11:49:35.186Z,28.20
2023-07-30T11:52:12.877Z,28.20
2023-07-30T11:54:41.078Z,28.26
2023-07-30T11:57:09.369Z,28.35
2023-07-30T11:59:38.594Z,28.37
2023-07-30T12:02:06.860Z,28.49
2023-07-30T12:04:50.812Z,28.53
2023-07-30T12:07:27.356Z,28.48
2023-07-30T12:09:55.447Z,28.70
2023-07-30T12:12:27.774Z,28.72
2023-07-30T12:14:56.996Z,28.54
2023-07-30T12:17:25.288Z,28.62
2023-07-30T12:19:53.441Z,28.76
2023-07-30T12:22:22.213Z,28.93
2023-07-30T12:24:50.267Z,29.09
2023-07-30T12:27:18.557Z,29.23
2023-07-30T12:29:46.768Z,29.30
2023-07-30T12:32:15.149Z,29.15
2023-07-30T12:34:43.343Z,29.04
2023-07-30T12:37:12.294Z,28.70
2023-07-30T12:39:40.647Z,28.95
2023-07-30T12:42:08.923Z,29.16
2023-07-30T12:44:37.180Z,29.03
2023-07-30T12:47:07.296Z,29.12
2023-07-30T12:49:35.620Z,29.35
2023-07-30T12:52:03.773Z,29.03
2023-07-30T12:54:31.977Z,29.61
2023-07-30T12:57:00.053Z,29.58
2023-07-30T12:59:28.118Z,29.77
2023-07-30T13:01:56.268Z,29.57
2023-07-30T13:04:26.235Z,29.83
2023-07-30T13:06:54.439Z,29.90
2023-07-30T13:09:22.914Z,30.01
2023-07-30T13:11:51.083Z,30.03
2023-07-30T13:14:19.720Z,30.11
2023-07-30T13:16:47.800Z,30.11
2023-07-30T13:19:16.125Z,30.08
2023-07-30T13:21:44.266Z,30.26
2023-07-30T13:24:12.356Z,30.28
2023-07-30T13:26:41.220Z,30.38
2023-07-30T13:29:09.397Z,30.26
2023-07-30T13:31:38.489Z,30.28
2023-07-30T13:34:07.020Z,30.29
2023-07-30T13:36:35.041Z,30.23
2023-07-30T13:39:03.242Z,30.36
2023-07-30T13:41:31.398Z,30.42
2023-07-30T13:43:59.530Z,30.38
2023-07-30T13:46:27.559Z,30.33
2023-07-30T13:48:55.597Z,30.38
2023-07-30T13:51:23.811Z,30.46
2023-07-30T13:53:51.990Z,30.39
2023-07-30T13:56:20.341Z,30.30
2023-07-30T13:58:48.505Z,30.24
2023-07-30T14:01:18.276Z,30.01
2023-07-30T14:03:46.638Z,29.89
2023-07-30T14:06:14.902Z,29.79
2023-07-30T14:08:43.112Z,29.55
2023-07-30T14:11:11.288Z,29.38
2023-07-30T14:13:39.456Z,29.11
2023-07-30T14:16:07.771Z,28.95
2023-07-30T14:18:35.866Z,28.69
2023-07-30T14:21:05.359Z,28.50
2023-07-30T14:23:33.600Z,28.38
2023-07-30T14:26:01.937Z,28.13
2023-07-30T14:28:30.304Z,27.99
2023-07-30T14:30:58.389Z,27.83
2023-07-30T14:33:26.487Z,27.72
2023-07-30T14:35:54.631Z,27.62
2023-07-30T14:38:22.692Z,27.52
2023-07-30T14:40:50.815Z,27.43
2023-07-30T14:43:18.838Z,27.29
2023-07-30T14:45:46.972Z,27.18
2023-07-30T14:48:16.257Z,27.08
2023-07-30T14:50:44.425Z,26.98
2023-07-30T14:53:13.175Z,26.91
2023-07-30T14:55:41.481Z,26.84
2023-07-30T14:58:11.386Z,26.73
2023-07-30T15:00:39.813Z,26.64
2023-07-30T15:03:08.337Z,26.54
2023-07-30T15:05:36.665Z,26.46
2023-07-30T15:08:05.249Z,26.43
2023-07-30T15:10:33.513Z,26.37
2023-07-30T15:13:01.671Z,26.32
2023-07-30T15:15:29.729Z,26.23
2023-07-30T15:17:58.016Z,26.18
2023-07-30T15:20:26.903Z,26.06
2023-07-30T15:22:54.980Z,25.98
2023-07-30T15:25:23.215Z,25.90
2023-07-30T15:27:51.411Z,25.81
2023-07-30T15:30:19.567Z,25.72
2023-07-30T15:32:47.932Z,25.65
2023-07-30T15:35:17.858Z,25.58
2023-07-30T15:37:48.000Z,25.54
2023-07-30T15:40:16.364Z,25.47
2023-07-30T15:42:44.603Z,25.45
2023-07-30T15:45:12.960Z,25.44
2023-07-30T15:47:41.201Z,25.40
2023-07-30T15:50:09.984Z,25.34
2023-07-30T15:52:38.157Z,25.25
2023-07-30T15:55:06.626Z,25.21
2023-07-30T15:57:34.948Z,25.16
2023-07-30T16:00:03.073Z,25.10
2023-07-30T16:02:31.774Z,25.07
2023-07-30T16:05:00.312Z,25.06
2023-07-30T16:07:28.457Z,25.11
2023-07-30T16:09:56.584Z,25.09
2023-07-30T16:12:24.749Z,25.04
2023-07-30T16:14:56.464Z,25.02
2023-07-30T16:17:24.945Z,24.98
2023-07-30T16:19:53.066Z,24.96
2023-07-30T16:22:21.422Z,24.94
2023-07-30T16:24:50.616Z,24.91
2023-07-30T16:27:21.869Z,24.88
2023-07-30T16:29:49.981Z,24.83
2023-07-30T16:32:19.009Z,24.76
2023-07-30T16:34:47.166Z,24.73
2023-07-30T16:37:21.098Z,24.69
2023-07-30T16:39:52.313Z,24.64
2023-07-30T16:42:20.392Z,24.62
2023-07-30T16:44:54.212Z,24.56
2023-07-30T16:47:23.378Z,24.48
2023-07-30T16:49:51.966Z,24.45
2023-07-30T16:52:20.244Z,24.44
2023-07-30T16:54:48.355Z,24.44
2023-07-30T16:57:16.625Z,24.39
2023-07-30T16:59:44.917Z,24.36
2023-07-30T17:02:13.014Z,24.35
2023-07-30T17:04:41.289Z,24.28
2023-07-30T17:07:09.575Z,24.29
2023-07-30T17:09:37.744Z,24.27
2023-07-30T17:12:06.215Z,24.24
2023-07-30T17:14:34.336Z,24.19
2023-07-30T17:17:02.704Z,24.13
2023-07-30T17:19:30.821Z,24.10
2023-07-30T17:21:59.196Z,24.09
2023-07-30T17:24:27.443Z,24.04
2023-07-30T17:26:55.616Z,23.96
2023-07-30T17:29:23.787Z,23.96
2023-07-30T17:31:51.887Z,23.89
2023-07-30T17:34:20.961Z,23.87
2023-07-30T17:36:48.939Z,23.72
2023-07-30T17:39:17.026Z,23.71
2023-07-30T17:41:45.169Z,23.67
2023-07-30T17:44:13.379Z,23.62
2023-07-30T17:46:41.720Z,23.57
2023-07-30T17:49:10.010Z,23.55
2023-07-30T17:51:38.159Z,23.44
2023-07-30T17:54:06.220Z,23.38
2023-07-30T17:56:34.390Z,23.38
2023-07-30T17:59:02.573Z,23.33
2023-07-30T18:01:30.646Z,23.29
2023-07-30T18:03:58.904Z,23.25
2023-07-30T18:06:27.251Z,23.23
2023-07-30T18:08:55.418Z,23.18
2023-07-30T18:11:23.569Z,23.11
2023-07-30T18:13:51.772Z,23.05
2023-07-30T18:16:20.004Z,22.97
2023-07-30T18:18:48.071Z,22.89
2023-07-30T18:21:16.255Z,22.82
2023-07-30T18:23:44.568Z,22.77
2023-07-30T18:26:12.890Z,22.72
2023-07-30T18:28:41.179Z,22.68
2023-07-30T18:31:09.574Z,22.65
2023-07-30T18:33:37.695Z,22.60
2023-07-30T18:36:06.127Z,22.56
2023-07-30T18:38:35.395Z,22.55
2023-07-30T18:41:07.140Z,22.45
2023-07-30T18:43:35.453Z,22.41
2023-07-30T18:46:03.583Z,22.33
2023-07-30T18:48:32.271Z,22.28
2023-07-30T18:51:00.401Z,22.23
2023-07-30T18:53:29.887Z,22.23
2023-07-30T18:55:58.028Z,22.25
2023-07-30T18:58:26.309Z,22.24
2023-07-30T19:00:54.560Z,22.21
2023-07-30T19:03:22.841Z,22.13
2023-07-30T19:05:55.699Z,22.07
2023-07-30T19:08:25.303Z,21.99
2023-07-30T19:10:53.610Z,21.97
2023-07-30T19:13:22.090Z,21.87
2023-07-30T19:15:50.628Z,21.78
2023-07-30T19:18:18.864Z,21.65
2023-07-30T19:20:47.326Z,21.55
2023-07-30T19:23:18.112Z,21.48
2023-07-30T19:25:55.585Z,21.44
2023-07-30T19:28:27.218Z,21.39
2023-07-30T19:30:55.558Z,21.30
2023-07-30T19:33:23.838Z,21.24
2023-07-30T19:35:52.415Z,21.20
2023-07-30T19:38:23.404Z,21.14
2023-07-30T19:40:56.877Z,21.07
2023-07-30T19:43:27.776Z,21.03
2023-07-30T19:45:56.146Z,20.96
2023-07-30T19:48:27.908Z,20.85
2023-07-30T19:50:56.598Z,20.80
2023-07-30T19:53:24.913Z,20.74
2023-07-30T19:55:53.345Z,20.72
2023-07-30T19:58:32.228Z,20.69
2023-07-30T20:01:01.471Z,20.65
2023-07-30T20:03:30.786Z,20.68
2023-07-30T20:06:02.845Z,20.71
2023-07-30T20:08:31.420Z,20.68
2023-07-30T20:10:59.785Z,20.68
2023-07-30T20:13:29.928Z,20.64
2023-07-30T20:16:01.164Z,20.58
2023-07-30T20:18:32.925Z,20.52
2023-07-30T20:21:01.292Z,20.48
2023-07-30T20:23:41.539Z,20.41
2023-07-30T20:26:18.847Z,20.40
2023-07-30T20:29:08.339Z,20.36
2023-07-30T20:31:39.092Z,20.27
2023-07-30T20:34:10.711Z,20.20
2023-07-30T20:36:39.589Z,20.12
2023-07-30T20:39:08.002Z,20.11
2023-07-30T20:41:40.910Z,20.04
2023-07-30T20:44:10.410Z,19.97
2023-07-30T20:46:39.009Z,19.92
2023-07-30T20:49:08.459Z,19.87
2023-07-30T20:51:36.678Z,19.82
2023-07-30T20:54:07.642Z,19.81
2023-07-30T20:56:35.958Z,19.73
2023-07-30T20:59:04.728Z,19.67
2023-07-30T21:01:33.320Z,19.64
2023-07-30T21:04:01.594Z,19.61
2023-07-30T21:06:29.696Z,19.59
2023-07-30T21:08:57.931Z,19.55
2023-07-30T21:11:26.807Z,19.51
2023-07-30T21:13:54.952Z,19.55
2023-07-30T21:16:24.123Z,19.49
2023-07-30T21:18:53.934Z,19.47
2023-07-30T21:21:22.185Z,19.45
2023-07-30T21:23:53.341Z,19.39
2023-07-30T21:26:30.200Z,19.35
2023-07-30T21:28:58.521Z,19.28
2023-07-30T21:31:29.498Z,19.25
2023-07-30T21:33:57.695Z,19.19
2023-07-30T21:36:25.917Z,19.10
2023-07-30T21:38:54.028Z,19.04
2023-07-30T21:41:22.096Z,18.98
2023-07-30T21:43:50.322Z,18.99
2023-07-30T21:46:18.421Z,18.97
2023-07-30T21:48:46.605Z,18.89
2023-07-30T21:51:14.705Z,18.85
2023-07-30T21:53:45.805Z,18.75
2023-07-30T21:56:16.464Z,18.76
2023-07-30T21:58:44.896Z,18.71
2023-07-30T22:01:13.095Z,18.70
2023-07-30T22:03:41.177Z,18.64
2023-07-30T22:06:12.261Z,18.60
2023-07-30T22:08:40.274Z,18.56
2023-07-30T22:11:08.456Z,18.56
2023-07-30T22:13:36.490Z,18.54
2023-07-30T22:16:10.080Z,18.50
2023-07-30T22:18:38.166Z,18.50
2023-07-30T22:21:06.234Z,18.40
2023-07-30T22:23:34.767Z,18.32
2023-07-30T22:26:02.827Z,18.31
2023-07-30T22:28:31.015Z,18.30
2023-07-30T22:30:59.209Z,18.29
2023-07-30T22:33:27.300Z,18.24
2023-07-30T22:35:56.983Z,18.24
2023-07-30T22:38:25.214Z,18.17
2023-07-30T22:40:53.237Z,18.20
2023-07-30T22:43:22.975Z,18.19
2023-07-30T22:45:51.048Z,18.18
2023-07-30T22:48:19.132Z,18.22
2023-07-30T22:50:48.226Z,18.24
2023-07-30T22:53:16.656Z,18.27
2023-07-30T22:55:45.576Z,18.29
2023-07-30T22:58:14.211Z,18.30
2023-07-30T23:00:42.295Z,18.34
2023-07-30T23:03:10.445Z,18.34
2023-07-30T23:05:38.529Z,18.34
2023-07-30T23:08:06.723Z,18.34
2023-07-30T23:10:34.904Z,18.29
2023-07-30T23:13:05.790Z,18.30
2023-07-30T23:15:33.853Z,18.36
2023-07-30T23:18:02.537Z,18.37
2023-07-30T23:20:30.608Z,18.38
2023-07-30T23:22:58.621Z,18.38
2023-07-30T23:25:26.728Z,18.37
2023-07-30T23:27:54.752Z,18.37
2023-07-30T23:30:22.867Z,18.36
2023-07-30T23:32:51.098Z,18.29
2023-07-30T23:35:19.161Z,18.26
2023-07-30T23:37:47.154Z,18.28
2023-07-30T23:40:15.288Z,18.28
2023-07-30T23:42:43.364Z,18.29
2023-07-30T23:45:11.796Z,18.27
2023-07-30T23:47:39.963Z,18.26
2023-07-30T23:50:08.300Z,18.26
2023-07-30T23:52:36.400Z,18.28
2023-07-30T23:55:04.863Z,18.25
2023-07-30T23:57:32.877Z,18.22
